createdAt,value
2022-08-19T00:00:21.729Z,58.13
2022-08-19T00:02:50.150Z,58.33
2022-08-19T00:05:18.531Z,58.38
2022-08-19T00:07:46.588Z,58.43
2022-08-19T00:10:15.158Z,58.42
2022-08-19T00:12:46.839Z,58.31
2022-08-19T00:15:16.414Z,58.58
2022-08-19T00:17:45.000Z,58.35
2022-08-19T00:20:13.979Z,58.34
2022-08-19T00:22:42.334Z,58.38
2022-08-19T00:25:10.241Z,58.18
2022-08-19T00:27:37.884Z,58.24
2022-08-19T00:30:08.522Z,58.33
2022-08-19T00:32:36.245Z,58.19
2022-08-19T00:35:03.913Z,58.45
2022-08-19T00:37:31.489Z,58.31
2022-08-19T00:39:59.169Z,58.13
2022-08-19T00:42:29.340Z,58.25
2022-08-19T00:44:57.017Z,58.49
2022-08-19T00:47:25.994Z,58.14
2022-08-19T00:49:55.621Z,58.51
2022-08-19T00:52:25.048Z,58.23
2022-08-19T00:54:53.464Z,58.46
2022-08-19T00:57:23.098Z,58.22
2022-08-19T00:59:56.526Z,58.27
2022-08-19T01:02:32.779Z,58.06
2022-08-19T01:05:01.119Z,58.18
2022-08-19T01:07:28.725Z,58.42
2022-08-19T01:10:03.437Z,58.28
2022-08-19T01:12:31.130Z,58.22
2022-08-19T01:14:58.757Z,58.14
2022-08-19T01:17:26.785Z,58.41
2022-08-19T01:19:55.729Z,58.09
2022-08-19T01:22:33.513Z,58.20
2022-08-19T01:25:01.716Z,58.14
2022-08-19T01:27:35.286Z,58.18
2022-08-19T01:30:12.337Z,58.12
2022-08-19T01:32:39.956Z,58.10
2022-08-19T01:35:08.233Z,57.99
2022-08-19T01:37:46.089Z,58.29
2022-08-19T01:40:13.760Z,58.14
2022-08-19T01:42:42.189Z,57.86
2022-08-19T01:45:10.503Z,57.96
2022-08-19T01:47:38.417Z,58.33
2022-08-19T01:50:07.239Z,58.29
2022-08-19T01:52:37.564Z,57.98
2022-08-19T01:55:09.024Z,57.97
2022-08-19T01:57:36.748Z,58.16
2022-08-19T02:00:07.140Z,57.95
2022-08-19T02:02:34.967Z,58.24
2022-08-19T02:05:02.621Z,58.02
2022-08-19T02:07:30.240Z,57.96
2022-08-19T02:09:58.523Z,58.04
2022-08-19T02:12:27.508Z,58.18
2022-08-19T02:14:55.112Z,58.13
2022-08-19T02:17:22.715Z,58.04
2022-08-19T02:19:50.368Z,58.11
2022-08-19T02:22:18.031Z,58.07
2022-08-19T02:24:45.650Z,58.25
2022-08-19T02:27:13.282Z,58.07
2022-08-19T02:29:42.245Z,58.14
2022-08-19T02:32:09.854Z,58.19
2022-08-19T02:34:37.469Z,58.12
2022-08-19T02:37:05.116Z,58.22
2022-08-19T02:39:31.781Z,58.12
2022-08-19T02:42:00.616Z,58.01
2022-08-19T02:44:31.787Z,57.98
2022-08-19T02:47:01.100Z,58.26
2022-08-19T02:49:28.748Z,58.29
2022-08-19T02:51:56.357Z,58.19
2022-08-19T02:54:23.974Z,58.22
2022-08-19T02:56:51.658Z,58.20
2022-08-19T02:59:23.028Z,58.13
2022-08-19T03:01:50.760Z,58.23
2022-08-19T03:04:21.212Z,58.39
2022-08-19T03:06:49.070Z,58.18
2022-08-19T03:09:16.736Z,58.34
2022-08-19T03:11:44.347Z,58.32
2022-08-19T03:14:12.161Z,58.20
2022-08-19T03:16:44.189Z,58.40
2022-08-19T03:19:11.840Z,58.37
2022-08-19T03:21:40.816Z,58.39
2022-08-19T03:24:09.878Z,58.37
2022-08-19T03:26:40.526Z,58.44
2022-08-19T03:29:10.333Z,58.28
2022-08-19T03:31:43.632Z,58.56
2022-08-19T03:34:21.393Z,58.43
2022-08-19T03:36:50.532Z,58.53
2022-08-19T03:39:18.365Z,58.58
2022-08-19T03:41:48.437Z,58.14
2022-08-19T03:44:18.520Z,58.56
2022-08-19T03:46:46.811Z,58.54
2022-08-19T03:49:14.714Z,58.32
2022-08-19T03:51:42.853Z,58.51
2022-08-19T03:54:12.764Z,58.36
2022-08-19T03:56:40.942Z,58.48
2022-08-19T03:59:09.721Z,58.14
2022-08-19T04:01:37.462Z,58.00
2022-08-19T04:04:05.509Z,58.03
2022-08-19T04:06:34.930Z,58.20
2022-08-19T04:09:03.909Z,58.42
2022-08-19T04:11:43.426Z,58.36
2022-08-19T04:14:12.512Z,58.36
2022-08-19T04:16:40.133Z,58.45
2022-08-19T04:19:08.288Z,58.41
2022-08-19T04:21:36.005Z,58.43
2022-08-19T04:24:04.165Z,58.64
2022-08-19T04:26:34.269Z,58.63
2022-08-19T04:29:02.114Z,58.65
2022-08-19T04:31:31.682Z,58.64
2022-08-19T04:34:01.273Z,58.71
2022-08-19T04:36:29.905Z,58.65
2022-08-19T04:39:17.000Z,58.67
2022-08-19T04:42:03.725Z,58.60
2022-08-19T04:44:33.327Z,58.82
2022-08-19T04:47:11.037Z,58.68
2022-08-19T04:49:39.094Z,58.81
2022-08-19T04:52:06.933Z,58.66
2022-08-19T04:54:38.162Z,58.70
2022-08-19T04:57:09.508Z,58.36
2022-08-19T04:59:37.374Z,58.26
2022-08-19T05:02:05.335Z,59.08
2022-08-19T05:04:33.670Z,59.52
2022-08-19T05:07:01.633Z,59.59
2022-08-19T05:09:33.100Z,59.33
2022-08-19T05:12:18.846Z,58.95
2022-08-19T05:14:48.173Z,59.05
2022-08-19T05:17:36.245Z,58.69
2022-08-19T05:20:22.025Z,59.65
2022-08-19T05:22:49.630Z,59.82
2022-08-19T05:25:19.849Z,59.98
2022-08-19T05:27:49.141Z,59.90
2022-08-19T05:30:16.820Z,60.30
2022-08-19T05:32:44.805Z,60.24
2022-08-19T05:35:12.646Z,60.51
2022-08-19T05:37:41.096Z,60.50
2022-08-19T05:40:10.107Z,60.43
2022-08-19T05:42:37.972Z,60.59
2022-08-19T05:45:08.042Z,60.52
2022-08-19T05:47:36.501Z,60.71
2022-08-19T05:50:10.383Z,60.95
2022-08-19T05:52:39.033Z,60.97
2022-08-19T05:55:11.369Z,61.09
2022-08-19T05:57:39.002Z,60.90
2022-08-19T06:00:11.244Z,61.16
2022-08-19T06:02:38.955Z,61.20
2022-08-19T06:05:09.903Z,61.20
2022-08-19T06:07:37.622Z,61.10
2022-08-19T06:10:05.734Z,61.40
2022-08-19T06:12:35.489Z,61.85
2022-08-19T06:15:04.388Z,61.40
2022-08-19T06:17:35.586Z,61.63
2022-08-19T06:20:03.632Z,61.63
2022-08-19T06:22:31.433Z,61.41
2022-08-19T06:24:59.052Z,61.73
2022-08-19T06:27:26.732Z,61.91
2022-08-19T06:29:54.997Z,61.67
2022-08-19T06:32:22.588Z,61.94
2022-08-19T06:34:51.595Z,61.87
2022-08-19T06:37:19.203Z,62.01
2022-08-19T06:39:46.906Z,62.15
2022-08-19T06:42:17.031Z,61.96
2022-08-19T06:44:48.820Z,62.20
2022-08-19T06:47:23.657Z,62.04
2022-08-19T06:49:57.007Z,62.30
2022-08-19T06:52:30.550Z,62.27
2022-08-19T06:54:59.590Z,62.17
2022-08-19T06:57:28.117Z,62.43
2022-08-19T06:59:57.446Z,62.09
2022-08-19T07:02:27.170Z,62.36
2022-08-19T07:04:58.345Z,62.39
2022-08-19T07:07:28.213Z,62.40
2022-08-19T07:10:00.861Z,62.46
2022-08-19T07:12:30.527Z,62.53
2022-08-19T07:14:59.295Z,62.63
2022-08-19T07:17:26.957Z,62.82
2022-08-19T07:19:56.194Z,62.97
2022-08-19T07:22:24.683Z,62.83
2022-08-19T07:24:52.397Z,62.91
2022-08-19T07:27:24.538Z,62.69
2022-08-19T07:29:56.148Z,62.86
2022-08-19T07:32:26.835Z,62.96
2022-08-19T07:34:56.644Z,63.04
2022-08-19T07:37:27.328Z,63.12
2022-08-19T07:39:57.126Z,62.86
2022-08-19T07:42:24.803Z,63.03
2022-08-19T07:44:52.407Z,63.05
2022-08-19T07:47:49.270Z,62.90
2022-08-19T07:50:10.786Z,63.22
2022-08-19T07:52:40.239Z,63.18
2022-08-19T07:55:41.626Z,63.20
2022-08-19T07:57:59.640Z,63.35
2022-08-19T08:00:27.436Z,63.21
2022-08-19T08:02:55.261Z,63.22
2022-08-19T08:05:43.866Z,63.34
2022-08-19T08:08:44.171Z,62.96
2022-08-19T08:11:16.079Z,63.25
2022-08-19T08:13:45.440Z,63.34
2022-08-19T08:16:14.059Z,63.36
2022-08-19T08:18:50.524Z,63.29
2022-08-19T08:21:22.193Z,63.33
2022-08-19T08:23:52.084Z,63.31
2022-08-19T08:26:21.009Z,63.14
2022-08-19T08:28:49.606Z,63.18
2022-08-19T08:31:17.488Z,63.21
2022-08-19T08:33:45.165Z,63.25
2022-08-19T08:36:14.562Z,63.19
2022-08-19T08:38:44.724Z,63.28
2022-08-19T08:41:24.743Z,63.22
2022-08-19T08:43:53.849Z,63.27
2022-08-19T08:46:30.745Z,63.41
2022-08-19T08:49:01.941Z,63.33
2022-08-19T08:51:34.991Z,63.33
2022-08-19T08:54:04.862Z,63.22
2022-08-19T08:56:32.979Z,63.31
2022-08-19T08:59:02.345Z,63.42
2022-08-19T09:01:30.424Z,63.29
2022-08-19T09:04:02.743Z,63.46
2022-08-19T09:06:33.777Z,63.21
2022-08-19T09:09:12.301Z,63.13
2022-08-19T09:11:48.600Z,63.40
2022-08-19T09:14:48.889Z,63.56
2022-08-19T09:17:10.002Z,63.57
2022-08-19T09:19:38.057Z,63.44
2022-08-19T09:22:08.604Z,63.49
2022-08-19T09:24:40.744Z,63.39
2022-08-19T09:27:18.782Z,63.39
2022-08-19T09:29:48.769Z,63.20
2022-08-19T09:32:26.820Z,63.26
2022-08-19T09:34:55.583Z,63.29
2022-08-19T09:37:23.825Z,63.29
2022-08-19T09:39:54.288Z,63.23
2022-08-19T09:42:30.268Z,63.55
2022-08-19T09:45:04.912Z,63.50
2022-08-19T09:47:33.422Z,63.43
2022-08-19T09:50:01.021Z,63.68
2022-08-19T09:52:32.725Z,63.80
2022-08-19T09:55:02.016Z,64.30
2022-08-19T09:57:35.044Z,65.08
2022-08-19T10:00:02.804Z,65.73
2022-08-19T10:02:30.555Z,64.53
2022-08-19T10:05:16.324Z,62.89
2022-08-19T10:07:51.156Z,62.81
2022-08-19T10:10:20.178Z,61.99
2022-08-19T10:12:48.820Z,63.20
2022-08-19T10:15:17.451Z,66.10
2022-08-19T10:17:56.743Z,65.91
2022-08-19T10:20:26.421Z,64.90
2022-08-19T10:22:54.032Z,65.69
2022-08-19T10:25:23.018Z,65.89
2022-08-19T10:27:51.376Z,65.87
2022-08-19T10:30:20.149Z,65.79
2022-08-19T10:32:47.933Z,65.76
2022-08-19T10:35:16.199Z,65.68
2022-08-19T10:37:55.979Z,65.70
2022-08-19T10:40:26.921Z,65.38
2022-08-19T10:42:54.642Z,64.51
2022-08-19T10:45:23.225Z,65.11
2022-08-19T10:47:51.695Z,65.25
2022-08-19T10:50:36.790Z,65.11
2022-08-19T10:53:08.046Z,65.34
2022-08-19T10:55:56.605Z,64.87
2022-08-19T10:58:24.477Z,64.89
2022-08-19T11:00:54.142Z,64.50
2022-08-19T11:03:22.215Z,64.74
2022-08-19T11:05:59.294Z,64.67
2022-08-19T11:08:27.738Z,64.81
2022-08-19T11:11:00.126Z,64.73
2022-08-19T11:13:27.824Z,64.58
2022-08-19T11:16:02.822Z,64.60
2022-08-19T11:18:35.021Z,64.55
2022-08-19T11:21:08.385Z,64.66
2022-08-19T11:23:36.101Z,64.71
2022-08-19T11:26:05.560Z,64.62
2022-08-19T11:28:33.694Z,64.81
2022-08-19T11:31:02.498Z,64.55
2022-08-19T11:33:30.153Z,64.45
2022-08-19T11:35:59.373Z,64.45
2022-08-19T11:38:27.114Z,64.72
2022-08-19T11:40:58.816Z,64.46
2022-08-19T11:43:28.076Z,64.35
2022-08-19T11:45:56.200Z,64.34
2022-08-19T11:48:23.924Z,64.68
2022-08-19T11:50:51.624Z,64.61
2022-08-19T11:53:19.299Z,64.62
2022-08-19T11:55:46.892Z,64.37
2022-08-19T11:58:19.023Z,64.57
2022-08-19T12:00:48.315Z,64.38
2022-08-19T12:03:15.955Z,64.51
2022-08-19T12:05:43.742Z,64.43
2022-08-19T12:08:13.534Z,64.24
2022-08-19T12:10:41.813Z,64.49
2022-08-19T12:13:09.528Z,64.35
2022-08-19T12:15:37.709Z,64.11
2022-08-19T12:18:06.991Z,64.05
2022-08-19T12:20:36.511Z,63.90
2022-08-19T12:23:04.336Z,64.29
2022-08-19T12:25:32.618Z,64.12
2022-08-19T12:28:00.829Z,64.26
2022-08-19T12:30:28.673Z,63.79
2022-08-19T12:32:56.342Z,64.10
2022-08-19T12:35:26.766Z,63.93
2022-08-19T12:37:57.003Z,63.89
2022-08-19T12:40:26.406Z,64.11
2022-08-19T12:42:54.348Z,63.80
2022-08-19T12:45:22.538Z,63.83
2022-08-19T12:47:50.519Z,62.90
2022-08-19T12:50:22.422Z,63.43
2022-08-19T12:52:51.466Z,63.79
2022-08-19T12:55:20.076Z,63.75
2022-08-19T12:57:49.444Z,63.76
2022-08-19T13:00:18.573Z,63.60
2022-08-19T13:02:47.538Z,63.36
2022-08-19T13:05:16.783Z,63.79
2022-08-19T13:07:44.710Z,63.57
2022-08-19T13:10:16.266Z,63.76
2022-08-19T13:12:43.949Z,63.67
2022-08-19T13:15:12.287Z,63.41
2022-08-19T13:17:40.176Z,63.78
2022-08-19T13:20:09.695Z,63.34
2022-08-19T13:22:37.580Z,63.44
2022-08-19T13:25:06.284Z,63.15
2022-08-19T13:27:35.277Z,63.46
2022-08-19T13:30:20.457Z,63.21
2022-08-19T13:33:05.759Z,62.58
2022-08-19T13:35:33.378Z,63.27
2022-08-19T13:38:01.736Z,63.33
2022-08-19T13:40:30.059Z,63.08
2022-08-19T13:42:59.098Z,63.23
2022-08-19T13:45:26.941Z,63.28
2022-08-19T13:47:59.251Z,63.17
2022-08-19T13:50:28.984Z,63.50
2022-08-19T13:52:57.240Z,63.51
2022-08-19T13:55:25.345Z,63.24
2022-08-19T13:57:53.816Z,63.06
2022-08-19T14:00:24.796Z,63.41
2022-08-19T14:02:53.314Z,62.18
2022-08-19T14:05:21.384Z,62.45
2022-08-19T14:07:49.294Z,62.54
2022-08-19T14:10:17.115Z,62.43
2022-08-19T14:12:44.745Z,63.08
2022-08-19T14:15:12.912Z,62.69
2022-08-19T14:17:42.045Z,62.31
2022-08-19T14:20:11.360Z,62.44
2022-08-19T14:22:45.656Z,62.19
2022-08-19T14:25:14.593Z,62.12
2022-08-19T14:27:42.676Z,63.25
2022-08-19T14:30:11.797Z,62.12
2022-08-19T14:32:39.474Z,62.17
2022-08-19T14:35:09.214Z,62.28
2022-08-19T14:37:40.087Z,63.13
2022-08-19T14:40:14.032Z,62.38
2022-08-19T14:42:41.928Z,62.26
2022-08-19T14:45:10.642Z,62.70
2022-08-19T14:47:39.697Z,61.99
2022-08-19T14:50:11.369Z,62.21
2022-08-19T14:52:46.157Z,62.05
2022-08-19T14:55:13.830Z,61.46
2022-08-19T14:57:42.455Z,61.48
2022-08-19T15:00:13.701Z,61.93
2022-08-19T15:02:41.417Z,61.70
2022-08-19T15:05:10.709Z,61.51
2022-08-19T15:07:38.578Z,61.45
2022-08-19T15:10:07.703Z,61.60
2022-08-19T15:12:35.941Z,61.44
2022-08-19T15:15:03.589Z,61.32
2022-08-19T15:17:44.994Z,61.30
2022-08-19T15:20:22.046Z,61.39
2022-08-19T15:22:49.830Z,61.57
2022-08-19T15:25:19.379Z,61.28
2022-08-19T15:27:47.009Z,61.10
2022-08-19T15:30:19.921Z,61.33
2022-08-19T15:32:49.187Z,60.86
2022-08-19T15:35:19.258Z,61.10
2022-08-19T15:37:50.149Z,60.19
2022-08-19T15:40:17.830Z,59.71
2022-08-19T15:42:45.448Z,59.99
2022-08-19T15:45:13.508Z,59.94
2022-08-19T15:47:41.265Z,60.47
2022-08-19T15:50:10.525Z,59.67
2022-08-19T15:52:44.990Z,59.39
2022-08-19T15:55:32.594Z,59.09
2022-08-19T15:58:24.163Z,61.06
2022-08-19T16:01:14.429Z,60.86
2022-08-19T16:03:59.757Z,59.43
2022-08-19T16:06:27.455Z,60.79
2022-08-19T16:08:55.129Z,61.38
2022-08-19T16:11:29.290Z,61.42
2022-08-19T16:13:57.793Z,61.95
2022-08-19T16:16:33.847Z,62.26
2022-08-19T16:19:02.902Z,61.69
2022-08-19T16:21:33.069Z,60.78
2022-08-19T16:24:01.179Z,60.14
2022-08-19T16:26:31.095Z,61.24
2022-08-19T16:28:59.632Z,59.63
2022-08-19T16:31:27.557Z,61.06
2022-08-19T16:33:55.186Z,59.17
2022-08-19T16:36:24.045Z,60.70
2022-08-19T16:38:52.034Z,59.83
2022-08-19T16:41:19.659Z,60.45
2022-08-19T16:43:49.237Z,60.37
2022-08-19T16:46:18.681Z,60.04
2022-08-19T16:48:46.378Z,59.86
2022-08-19T16:51:14.533Z,59.74
2022-08-19T16:53:42.730Z,60.08
2022-08-19T16:56:14.014Z,59.20
2022-08-19T16:58:42.585Z,59.71
2022-08-19T17:01:11.936Z,59.87
2022-08-19T17:03:39.900Z,59.92
2022-08-19T17:06:18.450Z,59.34
2022-08-19T17:08:49.303Z,59.74
2022-08-19T17:11:18.625Z,59.01
2022-08-19T17:13:47.961Z,59.11
2022-08-19T17:16:17.269Z,58.87
2022-08-19T17:18:45.269Z,59.02
2022-08-19T17:21:13.383Z,58.87
2022-08-19T17:23:42.886Z,58.90
2022-08-19T17:26:17.130Z,58.79
2022-08-19T17:28:47.188Z,58.49
2022-08-19T17:31:15.170Z,58.68
2022-08-19T17:33:48.714Z,58.65
2022-08-19T17:36:17.093Z,58.59
2022-08-19T17:38:44.700Z,58.36
2022-08-19T17:41:12.293Z,58.31
2022-08-19T17:43:43.549Z,58.20
2022-08-19T17:46:18.337Z,57.75
2022-08-19T17:48:52.062Z,57.95
2022-08-19T17:51:23.080Z,58.00
2022-08-19T17:53:52.362Z,57.91
2022-08-19T17:56:20.679Z,57.52
2022-08-19T17:58:57.825Z,57.51
2022-08-19T18:01:37.786Z,57.44
2022-08-19T18:04:18.740Z,57.46
2022-08-19T18:06:53.792Z,57.51
2022-08-19T18:09:23.878Z,57.49
2022-08-19T18:11:53.328Z,57.32
2022-08-19T18:14:28.145Z,57.22
2022-08-19T18:17:00.263Z,57.34
2022-08-19T18:19:30.152Z,57.44
2022-08-19T18:22:09.501Z,57.27
2022-08-19T18:24:38.760Z,57.19
2022-08-19T18:27:06.814Z,57.40
2022-08-19T18:29:38.584Z,57.23
2022-08-19T18:32:06.833Z,57.40
2022-08-19T18:34:38.061Z,57.28
2022-08-19T18:37:05.856Z,57.11
2022-08-19T18:39:51.180Z,57.31
2022-08-19T18:42:36.614Z,57.19
2022-08-19T18:45:21.953Z,56.95
2022-08-19T18:48:26.593Z,57.13
2022-08-19T18:50:57.306Z,56.94
2022-08-19T18:53:25.152Z,56.85
2022-08-19T18:55:55.245Z,57.01
2022-08-19T18:58:26.325Z,57.17
2022-08-19T19:00:55.785Z,57.02
2022-08-19T19:03:23.985Z,57.03
2022-08-19T19:05:52.160Z,57.15
2022-08-19T19:08:27.151Z,57.16
2022-08-19T19:10:55.801Z,57.43
2022-08-19T19:13:23.441Z,57.43
2022-08-19T19:15:51.531Z,57.56
2022-08-19T19:18:19.226Z,57.84
2022-08-19T19:20:47.018Z,57.90
2022-08-19T19:23:14.658Z,57.92
2022-08-19T19:25:50.307Z,57.81
2022-08-19T19:28:25.559Z,57.87
2022-08-19T19:30:54.143Z,58.02
2022-08-19T19:33:21.890Z,58.08
2022-08-19T19:35:49.498Z,58.12
2022-08-19T19:38:17.240Z,58.39
2022-08-19T19:40:46.801Z,58.12
2022-08-19T19:43:17.382Z,58.45
2022-08-19T19:45:45.057Z,58.33
2022-08-19T19:48:15.484Z,58.61
2022-08-19T19:50:43.433Z,58.59
2022-08-19T19:53:11.112Z,58.39
2022-08-19T19:55:41.203Z,58.35
2022-08-19T19:58:10.206Z,58.47
2022-08-19T20:00:37.851Z,58.54
2022-08-19T20:03:09.727Z,58.34
2022-08-19T20:05:37.380Z,58.62
2022-08-19T20:08:22.958Z,58.58
2022-08-19T20:10:50.947Z,58.58
2022-08-19T20:13:20.074Z,58.63
2022-08-19T20:15:47.764Z,58.67
2022-08-19T20:18:15.371Z,58.74
2022-08-19T20:20:43.596Z,58.95
2022-08-19T20:23:13.331Z,59.00
2022-08-19T20:25:41.076Z,58.81
2022-08-19T20:28:09.105Z,58.79
2022-08-19T20:30:43.777Z,58.89
2022-08-19T20:33:14.538Z,58.77
2022-08-19T20:35:43.349Z,58.97
2022-08-19T20:38:11.038Z,59.06
2022-08-19T20:40:39.225Z,59.13
2022-08-19T20:43:08.910Z,59.00
2022-08-19T20:45:38.200Z,59.22
2022-08-19T20:48:06.947Z,59.19
2022-08-19T20:50:35.825Z,59.30
2022-08-19T20:53:05.528Z,59.19
2022-08-19T20:55:33.576Z,59.44
2022-08-19T20:58:01.202Z,59.18
2022-08-19T21:00:30.706Z,59.20
2022-08-19T21:02:59.673Z,59.51
2022-08-19T21:05:30.553Z,59.37
2022-08-19T21:07:58.538Z,59.24
2022-08-19T21:10:26.233Z,59.51
2022-08-19T21:12:55.096Z,59.47
2022-08-19T21:15:24.575Z,59.55
2022-08-19T21:17:52.382Z,59.51
2022-08-19T21:20:21.490Z,59.72
2022-08-19T21:22:49.076Z,59.55
2022-08-19T21:25:16.987Z,59.67
2022-08-19T21:27:44.564Z,59.47
2022-08-19T21:30:13.678Z,59.50
2022-08-19T21:32:41.331Z,59.78
2022-08-19T21:35:09.358Z,59.75
2022-08-19T21:37:38.736Z,59.53
2022-08-19T21:40:07.370Z,59.75
2022-08-19T21:42:35.105Z,59.79
2022-08-19T21:45:03.167Z,59.74
2022-08-19T21:47:30.798Z,59.66
2022-08-19T21:49:58.419Z,59.72
2022-08-19T21:52:27.204Z,59.49
2022-08-19T21:54:56.290Z,59.77
2022-08-19T21:57:24.520Z,59.80
2022-08-19T21:59:52.556Z,59.75
2022-08-19T22:02:21.244Z,59.84
2022-08-19T22:04:49.470Z,59.92
2022-08-19T22:07:17.082Z,59.69
2022-08-19T22:09:45.155Z,59.95
2022-08-19T22:12:23.306Z,59.67
2022-08-19T22:14:51.612Z,59.80
2022-08-19T22:17:19.362Z,59.86
2022-08-19T22:19:47.039Z,59.73
2022-08-19T22:22:14.633Z,59.72
2022-08-19T22:24:42.207Z,59.73
2022-08-19T22:27:09.873Z,59.76
2022-08-19T22:29:38.825Z,59.64
2022-08-19T22:32:26.658Z,59.75
2022-08-19T22:34:56.610Z,59.81
2022-08-19T22:37:24.213Z,59.71
2022-08-19T22:39:51.877Z,59.68
2022-08-19T22:42:20.393Z,59.63
2022-08-19T22:44:49.753Z,59.64
2022-08-19T22:47:17.413Z,59.51
2022-08-19T22:49:45.222Z,59.69
2022-08-19T22:52:17.193Z,59.53
2022-08-19T22:54:46.121Z,59.57
2022-08-19T22:57:13.777Z,59.56
2022-08-19T22:59:41.467Z,59.45
2022-08-19T23:02:10.553Z,59.65
2022-08-19T23:04:38.254Z,59.60
2022-08-19T23:07:06.213Z,59.63
2022-08-19T23:09:33.884Z,59.40
2022-08-19T23:12:04.933Z,59.45
2022-08-19T23:14:32.588Z,59.53
2022-08-19T23:17:01.396Z,59.38
2022-08-19T23:19:30.645Z,59.66
2022-08-19T23:21:58.352Z,59.51
2022-08-19T23:24:25.961Z,59.47
2022-08-19T23:27:11.283Z,59.47
2022-08-19T23:29:56.510Z,59.35
2022-08-19T23:32:25.433Z,59.47
2022-08-19T23:34:56.081Z,59.48
2022-08-19T23:37:25.439Z,59.31
2022-08-19T23:39:53.424Z,59.47
2022-08-19T23:42:21.330Z,59.31
2022-08-19T23:44:51.560Z,59.29
2022-08-19T23:47:20.268Z,59.20
2022-08-19T23:49:48.514Z,59.20
2022-08-19T23:52:17.561Z,59.43
2022-08-19T23:54:45.233Z,59.37
2022-08-19T23:57:13.949Z,59.22
2022-08-19T23:59:44.974Z,59.34
